createdAt,value
2023-01-05T00:00:21.118Z,99479.38
2023-01-05T00:02:28.630Z,99476.84
2023-01-05T00:04:30.735Z,99477.72
2023-01-05T00:06:34.284Z,99473.50
2023-01-05T00:08:38.945Z,99466.75
2023-01-05T00:10:59.622Z,99457.47
2023-01-05T00:13:22.023Z,99465.00
2023-01-05T00:15:46.339Z,99447.97
2023-01-05T00:18:07.785Z,99451.44
2023-01-05T00:20:41.597Z,99452.31
2023-01-05T00:22:49.411Z,99436.22
2023-01-05T00:24:53.337Z,99442.31
2023-01-05T00:26:56.147Z,99444.03
2023-01-05T00:29:03.846Z,99438.94
2023-01-05T00:31:09.001Z,99441.50
2023-01-05T00:33:16.528Z,99437.25
2023-01-05T00:35:18.921Z,99445.78
2023-01-05T00:37:24.612Z,99438.97
2023-01-05T00:39:26.480Z,99434.72
2023-01-05T00:41:30.416Z,99430.41
2023-01-05T00:43:32.305Z,99428.91
2023-01-05T00:45:34.307Z,99428.91
2023-01-05T00:47:36.403Z,99417.78
2023-01-05T00:49:39.380Z,99410.13
2023-01-05T00:51:47.190Z,99406.81
2023-01-05T00:53:49.281Z,99412.78
2023-01-05T00:56:00.417Z,99413.59
2023-01-05T00:58:03.448Z,99399.13
2023-01-05T01:00:11.256Z,99403.34
2023-01-05T01:02:14.667Z,99405.97
2023-01-05T01:04:17.886Z,99398.31
2023-01-05T01:06:20.340Z,99400.06
2023-01-05T01:08:24.238Z,99389.81
2023-01-05T01:10:26.187Z,99395.75
2023-01-05T01:12:28.078Z,99387.25
2023-01-05T01:14:31.052Z,99384.63
2023-01-05T01:16:34.935Z,99380.31
2023-01-05T01:18:37.111Z,99380.28
2023-01-05T01:20:41.064Z,99375.06
2023-01-05T01:22:43.085Z,99368.28
2023-01-05T01:24:44.995Z,99369.16
2023-01-05T01:26:48.023Z,99370.81
2023-01-05T01:28:49.997Z,99375.03
2023-01-05T01:30:52.027Z,99362.19
2023-01-05T01:32:53.942Z,99357.03
2023-01-05T01:34:56.054Z,99359.72
2023-01-05T01:36:58.020Z,99351.22
2023-01-05T01:39:00.402Z,99345.16
2023-01-05T01:41:03.283Z,99347.63
2023-01-05T01:43:17.009Z,99342.59
2023-01-05T01:45:23.186Z,99335.72
2023-01-05T01:47:34.021Z,99320.44
2023-01-05T01:49:39.099Z,99305.19
2023-01-05T01:51:47.272Z,99328.22
2023-01-05T01:53:53.291Z,99328.22
2023-01-05T01:55:58.223Z,99330.78
2023-01-05T01:58:01.910Z,99320.56
2023-01-05T02:00:08.915Z,99313.09
2023-01-05T02:02:12.730Z,99309.78
2023-01-05T02:04:16.921Z,99297.03
2023-01-05T02:06:18.944Z,99308.16
2023-01-05T02:08:31.500Z,99315.00
2023-01-05T02:10:49.303Z,99312.44
2023-01-05T02:13:15.037Z,99309.84
2023-01-05T02:15:23.836Z,99315.84
2023-01-05T02:17:44.597Z,99303.97
2023-01-05T02:20:14.455Z,99309.06
2023-01-05T02:22:27.032Z,99289.53
2023-01-05T02:24:28.965Z,99293.81
2023-01-05T02:26:54.316Z,99295.50
2023-01-05T02:29:21.310Z,99292.22
2023-01-05T02:31:29.273Z,99297.34
2023-01-05T02:33:43.790Z,99298.19
2023-01-05T02:36:04.333Z,99292.25
2023-01-05T02:38:22.103Z,99300.69
2023-01-05T02:40:42.555Z,99297.34
2023-01-05T02:42:52.901Z,99287.03
2023-01-05T02:44:55.000Z,99287.06
2023-01-05T02:47:26.129Z,99287.13
2023-01-05T02:49:29.916Z,99285.41
2023-01-05T02:51:47.383Z,99280.34
2023-01-05T02:54:00.404Z,99281.19
2023-01-05T02:56:42.455Z,99280.38
2023-01-05T02:58:45.269Z,99278.69
2023-01-05T03:00:55.727Z,99270.13
2023-01-05T03:03:06.110Z,99272.75
2023-01-05T03:05:13.049Z,99270.22
2023-01-05T03:07:19.268Z,99271.88
2023-01-05T03:09:26.133Z,99265.88
2023-01-05T03:12:18.330Z,99259.00
2023-01-05T03:14:32.545Z,99262.41
2023-01-05T03:16:38.031Z,99258.97
2023-01-05T03:19:00.734Z,99258.06
2023-01-05T03:21:03.834Z,99256.31
2023-01-05T03:23:32.561Z,99249.47
2023-01-05T03:25:57.973Z,99241.75
2023-01-05T03:28:21.938Z,99241.63
2023-01-05T03:30:52.781Z,99238.28
2023-01-05T03:33:22.282Z,99228.03
2023-01-05T03:35:34.808Z,99230.69
2023-01-05T03:37:42.541Z,99221.25
2023-01-05T03:39:47.586Z,99219.63
2023-01-05T03:41:50.968Z,99221.31
2023-01-05T03:43:54.122Z,99222.13
2023-01-05T03:45:57.716Z,99221.25
2023-01-05T03:48:00.708Z,99211.88
2023-01-05T03:50:06.158Z,99218.69
2023-01-05T03:52:10.090Z,99221.19
2023-01-05T03:54:15.052Z,99224.53
2023-01-05T03:56:17.919Z,99227.97
2023-01-05T03:58:19.837Z,99225.47
2023-01-05T04:00:26.914Z,99213.50
2023-01-05T04:02:29.925Z,99227.94
2023-01-05T04:04:33.013Z,99213.41
2023-01-05T04:06:34.914Z,99203.22
2023-01-05T04:08:38.869Z,99213.44
2023-01-05T04:10:41.893Z,99214.28
2023-01-05T04:12:44.495Z,99218.50
2023-01-05T04:14:46.432Z,99220.25
2023-01-05T04:16:48.432Z,99214.19
2023-01-05T04:18:50.561Z,99226.06
2023-01-05T04:20:53.526Z,99232.94
2023-01-05T04:22:56.475Z,99230.34
2023-01-05T04:25:00.423Z,99226.97
2023-01-05T04:27:03.431Z,99226.91
2023-01-05T04:29:06.614Z,99232.94
2023-01-05T04:31:10.723Z,99227.75
2023-01-05T04:33:15.889Z,99235.38
2023-01-05T04:35:18.847Z,99247.31
2023-01-05T04:37:20.750Z,99237.91
2023-01-05T04:39:24.933Z,99240.44
2023-01-05T04:41:27.891Z,99237.88
2023-01-05T04:43:35.771Z,99243.81
2023-01-05T04:45:38.806Z,99232.75
2023-01-05T04:47:40.756Z,99237.00
2023-01-05T04:49:43.034Z,99234.47
2023-01-05T04:51:45.009Z,99229.31
2023-01-05T04:53:51.192Z,99238.63
2023-01-05T04:56:00.780Z,99234.41
2023-01-05T04:58:05.635Z,99232.66
2023-01-05T05:00:12.502Z,99230.91
2023-01-05T05:02:14.849Z,99230.03
2023-01-05T05:04:17.980Z,99229.22
2023-01-05T05:06:20.122Z,99228.41
2023-01-05T05:08:22.038Z,99224.94
2023-01-05T05:10:27.279Z,99231.75
2023-01-05T05:12:29.211Z,99230.06
2023-01-05T05:14:31.275Z,99224.94
2023-01-05T05:16:35.157Z,99223.19
2023-01-05T05:18:39.097Z,99229.97
2023-01-05T05:20:44.189Z,99231.66
2023-01-05T05:22:52.893Z,99231.66
2023-01-05T05:24:54.781Z,99230.81
2023-01-05T05:26:57.568Z,99230.88
2023-01-05T05:29:00.024Z,99230.88
2023-01-05T05:31:08.025Z,99235.22
2023-01-05T05:33:10.221Z,99235.22
2023-01-05T05:35:14.431Z,99240.31
2023-01-05T05:37:19.482Z,99242.81
2023-01-05T05:39:21.514Z,99239.38
2023-01-05T05:41:23.444Z,99242.78
2023-01-05T05:43:25.283Z,99231.63
2023-01-05T05:45:29.327Z,99231.66
2023-01-05T05:47:31.340Z,99238.50
2023-01-05T05:49:33.414Z,99244.38
2023-01-05T05:51:35.929Z,99235.84
2023-01-05T05:53:37.892Z,99235.84
2023-01-05T05:55:39.925Z,99241.81
2023-01-05T05:57:41.950Z,99234.19
2023-01-05T05:59:46.953Z,99239.22
2023-01-05T06:01:52.787Z,99246.88
2023-01-05T06:03:56.055Z,99243.38
2023-01-05T06:06:00.104Z,99229.88
2023-01-05T06:08:03.191Z,99232.41
2023-01-05T06:10:06.797Z,99240.13
2023-01-05T06:12:14.923Z,99231.72
2023-01-05T06:14:22.656Z,99237.75
2023-01-05T06:16:25.592Z,99240.28
2023-01-05T06:18:28.613Z,99237.72
2023-01-05T06:20:31.740Z,99240.28
2023-01-05T06:22:33.699Z,99242.81
2023-01-05T06:24:35.674Z,99251.31
2023-01-05T06:26:39.671Z,99249.66
2023-01-05T06:28:42.900Z,99248.78
2023-01-05T06:30:47.922Z,99241.13
2023-01-05T06:32:55.887Z,99246.06
2023-01-05T06:35:03.944Z,99261.44
2023-01-05T06:37:30.628Z,99248.63
2023-01-05T06:39:34.563Z,99257.16
2023-01-05T06:41:36.590Z,99251.19
2023-01-05T06:43:41.756Z,99252.03
2023-01-05T06:45:46.215Z,99258.03
2023-01-05T06:47:52.569Z,99252.94
2023-01-05T06:49:55.517Z,99263.16
2023-01-05T06:51:57.663Z,99249.56
2023-01-05T06:54:02.737Z,99254.75
2023-01-05T06:56:07.088Z,99251.34
2023-01-05T06:58:09.087Z,99265.88
2023-01-05T07:00:20.613Z,99266.78
2023-01-05T07:02:23.541Z,99261.66
2023-01-05T07:04:28.671Z,99265.84
2023-01-05T07:06:31.146Z,99265.84
2023-01-05T07:08:34.204Z,99259.00
2023-01-05T07:10:36.443Z,99259.03
2023-01-05T07:12:38.444Z,99249.72
2023-01-05T07:14:42.469Z,99265.00
2023-01-05T07:16:44.441Z,99270.16
2023-01-05T07:18:46.429Z,99265.03
2023-01-05T07:20:50.505Z,99265.88
2023-01-05T07:22:53.451Z,99268.50
2023-01-05T07:25:03.256Z,99269.44
2023-01-05T07:27:12.723Z,99271.97
2023-01-05T07:29:14.802Z,99270.31
2023-01-05T07:31:18.975Z,99275.53
2023-01-05T07:33:21.057Z,99274.63
2023-01-05T07:35:25.391Z,99273.03
2023-01-05T07:37:27.792Z,99269.78
2023-01-05T07:39:29.825Z,99273.22
2023-01-05T07:41:33.285Z,99274.94
2023-01-05T07:43:36.346Z,99289.53
2023-01-05T07:45:52.574Z,99280.22
2023-01-05T07:47:54.665Z,99282.75
2023-01-05T07:49:59.343Z,99287.88
2023-01-05T07:52:01.295Z,99276.78
2023-01-05T07:54:03.334Z,99286.16
2023-01-05T07:56:09.026Z,99277.66
2023-01-05T07:58:18.521Z,99280.25
2023-01-05T08:00:20.737Z,99283.66
2023-01-05T08:02:23.844Z,99282.81
2023-01-05T08:04:29.416Z,99287.09
2023-01-05T08:06:35.071Z,99286.22
2023-01-05T08:08:41.712Z,99283.72
2023-01-05T08:10:44.932Z,99290.59
2023-01-05T08:13:31.567Z,99276.03
2023-01-05T08:15:36.866Z,99292.25
2023-01-05T08:17:57.382Z,99296.56
2023-01-05T08:20:05.690Z,99287.16
2023-01-05T08:22:08.827Z,99283.78
2023-01-05T08:24:11.354Z,99300.94
2023-01-05T08:26:20.626Z,99289.78
2023-01-05T08:28:27.150Z,99299.19
2023-01-05T08:30:34.340Z,99300.94
2023-01-05T08:32:36.405Z,99299.19
2023-01-05T08:34:40.372Z,99308.59
2023-01-05T08:36:43.527Z,99301.81
2023-01-05T08:38:56.335Z,99304.41
2023-01-05T08:41:02.542Z,99311.28
2023-01-05T08:43:06.871Z,99308.72
2023-01-05T08:45:12.684Z,99306.16
2023-01-05T08:47:14.622Z,99310.44
2023-01-05T08:49:20.369Z,99312.13
2023-01-05T08:51:24.061Z,99317.34
2023-01-05T08:53:31.212Z,99311.41
2023-01-05T08:55:34.216Z,99315.63
2023-01-05T08:57:37.186Z,99320.72
2023-01-05T08:59:39.222Z,99319.81
2023-01-05T09:01:42.580Z,99329.22
2023-01-05T09:03:46.671Z,99336.84
2023-01-05T09:05:48.907Z,99335.09
2023-01-05T09:08:01.003Z,99349.63
2023-01-05T09:10:08.665Z,99345.28
2023-01-05T09:12:14.788Z,99338.41
2023-01-05T09:14:17.099Z,99354.63
2023-01-05T09:18:45.511Z,99354.72
2023-01-05T09:20:56.385Z,99349.59
2023-01-05T09:22:59.509Z,99359.84
2023-01-05T09:25:03.470Z,99355.50
2023-01-05T09:27:07.987Z,99354.69
2023-01-05T09:29:13.520Z,99360.59
2023-01-05T09:31:24.359Z,99375.09
2023-01-05T09:33:27.316Z,99364.00
2023-01-05T09:35:29.421Z,99369.88
2023-01-05T09:37:31.307Z,99372.41
2023-01-05T09:39:34.315Z,99374.91
2023-01-05T09:41:51.698Z,99368.91
2023-01-05T09:44:07.418Z,99372.34
2023-01-05T09:46:19.850Z,99374.94
2023-01-05T09:48:25.439Z,99371.47
2023-01-05T09:50:34.505Z,99371.50
2023-01-05T09:52:38.656Z,99380.88
2023-01-05T09:54:45.830Z,99373.16
2023-01-05T09:59:19.757Z,99375.75
2023-01-05T10:01:23.139Z,99373.28
2023-01-05T10:04:02.324Z,99381.00
2023-01-05T10:05:50.484Z,99372.44
2023-01-05T10:08:02.003Z,99377.66
2023-01-05T10:10:18.044Z,99373.53
2023-01-05T10:12:47.868Z,99371.22
2023-01-05T10:15:07.223Z,99370.50
2023-01-05T10:19:42.419Z,99368.09
2023-01-05T10:22:13.186Z,99371.59
2023-01-05T10:24:27.243Z,99374.91
2023-01-05T10:27:23.064Z,99370.00
2023-01-05T10:29:17.597Z,99369.94
2023-01-05T10:31:29.251Z,99375.00
2023-01-05T10:33:57.925Z,99369.75
2023-01-05T10:36:12.050Z,99374.75
2023-01-05T10:38:54.669Z,99376.41
2023-01-05T10:41:21.579Z,99372.22
2023-01-05T10:44:06.285Z,99371.28
2023-01-05T10:46:32.138Z,99372.91
2023-01-05T10:48:36.592Z,99371.16
2023-01-05T10:50:41.416Z,99376.25
2023-01-05T10:53:00.458Z,99360.84
2023-01-05T10:55:03.335Z,99376.09
2023-01-05T10:57:37.256Z,99372.53
2023-01-05T11:00:00.718Z,99376.56
2023-01-05T11:02:04.197Z,99380.63
2023-01-05T11:06:38.198Z,99378.09
2023-01-05T11:08:40.317Z,99375.63
2023-01-05T11:11:07.695Z,99380.78
2023-01-05T11:13:27.382Z,99371.63
2023-01-05T11:15:32.656Z,99382.16
2023-01-05T11:17:37.735Z,99374.56
2023-01-05T11:19:47.785Z,99366.88
2023-01-05T11:22:01.629Z,99385.97
2023-01-05T11:24:05.183Z,99375.88
2023-01-05T11:26:23.722Z,99380.13
2023-01-05T11:28:27.695Z,99368.25
2023-01-05T11:30:32.041Z,99374.28
2023-01-05T11:32:36.960Z,99378.53
2023-01-05T11:34:38.955Z,99374.19
2023-01-05T11:36:41.135Z,99381.81
2023-01-05T11:38:51.431Z,99374.22
2023-01-05T11:40:56.391Z,99377.53
2023-01-05T11:43:00.061Z,99374.03
2023-01-05T11:45:19.813Z,99378.28
2023-01-05T11:47:25.625Z,99380.72
2023-01-05T11:49:27.649Z,99382.38
2023-01-05T11:51:36.314Z,99382.31
2023-01-05T11:53:41.421Z,99378.88
2023-01-05T11:55:44.451Z,99378.00
2023-01-05T11:58:00.127Z,99377.94
2023-01-05T12:00:03.928Z,99372.78
2023-01-05T12:02:30.764Z,99378.66
2023-01-05T12:05:06.692Z,99376.69
2023-01-05T12:07:28.798Z,99375.78
2023-01-05T12:09:36.222Z,99380.03
2023-01-05T12:11:53.364Z,99380.88
2023-01-05T12:14:38.283Z,99374.03
2023-01-05T12:16:48.478Z,99382.56
2023-01-05T12:19:18.798Z,99380.09
2023-01-05T12:21:28.129Z,99380.06
2023-01-05T12:23:47.234Z,99373.25
2023-01-05T12:25:59.502Z,99377.53
2023-01-05T12:28:05.485Z,99377.47
2023-01-05T12:34:01.488Z,99374.97
2023-01-05T12:35:29.691Z,99374.09
2023-01-05T12:37:54.707Z,99368.94
2023-01-05T12:40:11.780Z,99376.59
2023-01-05T12:42:41.523Z,99372.13
2023-01-05T12:44:49.563Z,99363.84
2023-01-05T12:47:22.416Z,99363.72
2023-01-05T12:49:59.571Z,99371.28
2023-01-05T12:52:17.405Z,99362.56
2023-01-05T12:54:31.222Z,99385.84
2023-01-05T12:56:54.016Z,99390.34
2023-01-05T12:59:11.277Z,99386.06
2023-01-05T13:01:22.770Z,99381.94
2023-01-05T13:03:40.585Z,99377.69
2023-01-05T13:06:31.577Z,99388.81
2023-01-05T13:09:04.016Z,99380.31
2023-01-05T13:11:29.948Z,99379.28
2023-01-05T13:13:52.740Z,99384.41
2023-01-05T13:16:02.928Z,99392.00
2023-01-05T13:18:07.357Z,99384.31
2023-01-05T13:20:21.392Z,99395.34
2023-01-05T13:22:28.590Z,99391.06
2023-01-05T13:24:40.251Z,99393.78
2023-01-05T13:26:43.183Z,99393.63
2023-01-05T13:28:56.174Z,99396.19
2023-01-05T13:31:13.873Z,99400.34
2023-01-05T13:33:38.239Z,99410.53
2023-01-05T13:36:00.134Z,99401.91
2023-01-05T13:38:23.861Z,99407.88
2023-01-05T13:40:47.637Z,99397.56
2023-01-05T13:45:10.472Z,99409.47
2023-01-05T13:47:23.801Z,99407.84
2023-01-05T13:49:41.105Z,99413.69
2023-01-05T13:52:00.299Z,99415.44
2023-01-05T13:54:13.551Z,99415.44
2023-01-05T13:56:30.446Z,99427.22
2023-01-05T13:58:51.769Z,99427.22
2023-01-05T14:00:54.501Z,99423.78
2023-01-05T14:03:07.655Z,99419.53
2023-01-05T14:05:30.519Z,99418.69
2023-01-05T14:07:33.779Z,99431.38
2023-01-05T14:09:42.914Z,99441.69
2023-01-05T14:12:15.134Z,99439.91
2023-01-05T14:16:35.517Z,99434.09
2023-01-05T14:19:13.057Z,99441.69
2023-01-05T14:21:56.760Z,99428.09
2023-01-05T14:23:59.779Z,99442.63
2023-01-05T14:26:07.011Z,99432.28
2023-01-05T14:28:30.847Z,99435.59
2023-01-05T14:30:32.844Z,99440.66
2023-01-05T14:32:37.258Z,99442.22
2023-01-05T14:34:48.514Z,99437.94
2023-01-05T14:37:02.232Z,99432.88
2023-01-05T14:39:21.291Z,99441.34
2023-01-05T14:41:26.846Z,99450.00
2023-01-05T14:43:35.246Z,99449.06
2023-01-05T14:45:39.606Z,99442.28
2023-01-05T14:47:47.316Z,99454.06
2023-01-05T14:50:03.896Z,99442.31
2023-01-05T14:52:16.634Z,99444.06
2023-01-05T14:55:05.923Z,99440.78
2023-01-05T14:57:48.864Z,99447.56
2023-01-05T14:59:57.873Z,99443.97
2023-01-05T15:02:19.441Z,99451.75
2023-01-05T15:04:33.755Z,99446.50
2023-01-05T15:06:55.236Z,99441.53
2023-01-05T15:09:23.881Z,99447.44
2023-01-05T15:11:44.324Z,99441.44
2023-01-05T15:14:20.760Z,99444.84
2023-01-05T15:16:56.226Z,99446.53
2023-01-05T15:19:28.080Z,99449.28
2023-01-05T15:21:48.575Z,99455.09
2023-01-05T15:24:26.651Z,99453.44
2023-01-05T15:26:46.931Z,99449.28
2023-01-05T15:29:11.797Z,99451.06
2023-01-05T15:31:32.916Z,99434.78
2023-01-05T15:33:46.333Z,99449.28
2023-01-05T15:36:02.769Z,99446.59
2023-01-05T15:38:29.028Z,99453.97
2023-01-05T15:40:32.722Z,99447.16
2023-01-05T15:42:46.702Z,99448.63
2023-01-05T15:44:51.976Z,99453.72
2023-01-05T15:46:56.481Z,99457.00
2023-01-05T15:48:59.697Z,99461.22
2023-01-05T15:51:02.720Z,99450.91
2023-01-05T15:53:04.890Z,99455.06
2023-01-05T15:55:19.319Z,99464.41
2023-01-05T15:57:22.473Z,99454.03
2023-01-05T15:59:31.791Z,99469.50
2023-01-05T16:01:38.776Z,99466.09
2023-01-05T16:03:42.998Z,99469.50
2023-01-05T16:05:45.052Z,99469.44
2023-01-05T16:07:55.173Z,99482.75
2023-01-05T16:09:57.264Z,99485.22
2023-01-05T16:12:06.637Z,99503.84
2023-01-05T16:14:29.987Z,99503.78
2023-01-05T16:16:52.402Z,99514.13
2023-01-05T16:19:02.478Z,99508.88
2023-01-05T16:21:31.458Z,99503.03
2023-01-05T16:23:44.851Z,99514.81
2023-01-05T16:25:53.565Z,99515.50
2023-01-05T16:28:03.604Z,99516.13
2023-01-05T16:30:28.496Z,99528.00
2023-01-05T16:32:41.959Z,99539.66
2023-01-05T16:34:43.848Z,99538.66
2023-01-05T16:37:08.858Z,99554.66
2023-01-05T16:39:22.048Z,99563.81
2023-01-05T16:41:26.745Z,99563.03
2023-01-05T16:43:35.901Z,99560.28
2023-01-05T16:45:37.873Z,99586.53
2023-01-05T16:47:41.805Z,99579.00
2023-01-05T16:50:01.562Z,99583.06
2023-01-05T16:52:07.946Z,99593.16
2023-01-05T16:54:23.613Z,99593.09
2023-01-05T16:56:35.460Z,99593.75
2023-01-05T16:58:38.565Z,99605.69
2023-01-05T17:00:40.580Z,99608.25
2023-01-05T17:02:49.251Z,99617.34
2023-01-05T17:04:52.307Z,99624.94
2023-01-05T17:06:58.076Z,99616.50
2023-01-05T17:09:01.905Z,99638.34
2023-01-05T17:11:07.903Z,99645.00
2023-01-05T17:13:20.798Z,99651.75
2023-01-05T17:15:28.294Z,99643.16
2023-01-05T17:17:30.255Z,99662.72
2023-01-05T17:19:35.384Z,99673.66
2023-01-05T17:23:47.242Z,99674.31
2023-01-05T17:28:03.339Z,99687.91
2023-01-05T17:30:18.352Z,99693.88
2023-01-05T17:32:20.338Z,99689.09
2023-01-05T17:34:23.402Z,99698.41
2023-01-05T17:36:34.212Z,99705.53
2023-01-05T17:38:36.119Z,99690.09
2023-01-05T17:40:38.753Z,99705.34
2023-01-05T17:42:43.643Z,99712.13
2023-01-05T17:44:45.762Z,99723.00
2023-01-05T17:46:49.576Z,99730.84
2023-01-05T17:48:51.998Z,99720.69
2023-01-05T17:50:54.435Z,99729.41
2023-01-05T17:52:58.220Z,99731.03
2023-01-05T17:55:00.158Z,99738.72
2023-01-05T17:57:02.082Z,99731.91
2023-01-05T17:59:05.186Z,99751.44
2023-01-05T18:01:07.537Z,99754.00
2023-01-05T18:03:10.593Z,99739.50
2023-01-05T18:05:14.247Z,99761.88
2023-01-05T18:07:16.235Z,99765.84
2023-01-05T18:09:18.170Z,99765.75
2023-01-05T18:11:20.302Z,99772.41
2023-01-05T18:13:23.008Z,99776.66
2023-01-05T18:17:29.994Z,99786.66
2023-01-05T18:19:33.611Z,99798.38
2023-01-05T18:21:35.978Z,99795.13
2023-01-05T18:23:38.338Z,99803.47
2023-01-05T18:25:40.605Z,99804.34
2023-01-05T18:27:45.993Z,99810.28
2023-01-05T18:29:52.239Z,99805.31
2023-01-05T18:31:55.477Z,99811.22
2023-01-05T18:33:57.537Z,99822.34
2023-01-05T18:38:12.998Z,99835.09
2023-01-05T18:40:16.003Z,99845.13
2023-01-05T18:42:18.455Z,99848.66
2023-01-05T18:44:20.574Z,99850.31
2023-01-05T18:46:23.895Z,99847.66
2023-01-05T18:48:26.176Z,99858.50
2023-01-05T18:50:29.619Z,99864.25
2023-01-05T18:52:32.014Z,99868.34
2023-01-05T18:54:35.162Z,99876.72
2023-01-05T18:56:37.593Z,99871.28
2023-01-05T18:58:39.923Z,99872.97
2023-01-05T19:00:43.942Z,99884.94
2023-01-05T19:02:47.339Z,99895.72
2023-01-05T19:04:49.869Z,99913.44
2023-01-05T19:06:52.982Z,99930.50
2023-01-05T19:08:55.134Z,99922.78
2023-01-05T19:10:57.273Z,99934.41
2023-01-05T19:12:59.643Z,99920.66
2023-01-05T19:15:01.823Z,99927.44
2023-01-05T19:17:04.890Z,99926.22
2023-01-05T19:19:16.893Z,99935.44
2023-01-05T19:21:23.913Z,99937.44
2023-01-05T19:23:26.939Z,99950.59
2023-01-05T19:25:30.302Z,99954.19
2023-01-05T19:27:32.496Z,99953.66
2023-01-05T19:29:34.735Z,99960.38
2023-01-05T19:31:38.010Z,99953.94
2023-01-05T19:33:41.520Z,99957.56
2023-01-05T19:35:46.400Z,99974.63
2023-01-05T19:37:48.651Z,99966.09
2023-01-05T19:39:50.854Z,99978.53
2023-01-05T19:41:53.488Z,99975.41
2023-01-05T19:43:57.019Z,99975.22
2023-01-05T19:46:01.403Z,99985.41
2023-01-05T19:48:03.697Z,99982.72
2023-01-05T19:50:08.012Z,100001.94
2023-01-05T19:52:10.180Z,100000.91
2023-01-05T19:54:14.210Z,100011.88
2023-01-05T19:56:16.451Z,100009.03
2023-01-05T19:58:18.725Z,100025.72
2023-01-05T20:00:21.182Z,100027.31
2023-01-05T20:02:23.267Z,100032.44
2023-01-05T20:04:25.476Z,100033.19
2023-01-05T20:06:30.004Z,100044.22
2023-01-05T20:08:33.173Z,100046.09
2023-01-05T20:10:38.780Z,100058.72
2023-01-05T20:12:41.062Z,100061.09
2023-01-05T20:14:44.053Z,100048.94
2023-01-05T20:16:58.104Z,100067.94
2023-01-05T20:19:00.883Z,100073.59
2023-01-05T20:21:05.205Z,100076.16
2023-01-05T20:23:07.326Z,100070.00
2023-01-05T20:25:10.422Z,100088.41
2023-01-05T20:27:16.115Z,100093.19
2023-01-05T20:29:21.138Z,100101.00
2023-01-05T20:31:27.524Z,100109.63
2023-01-05T20:33:30.047Z,100104.03
2023-01-05T20:35:32.649Z,100116.91
2023-01-05T20:37:34.716Z,100121.72
2023-01-05T20:39:38.627Z,100130.75
2023-01-05T20:41:43.459Z,100139.78
2023-01-05T20:43:48.092Z,100136.59
2023-01-05T20:45:50.882Z,100147.16
2023-01-05T20:47:52.967Z,100150.75
2023-01-05T20:49:56.760Z,100160.00
2023-01-05T20:52:03.159Z,100151.59
2023-01-05T20:54:09.243Z,100158.00
2023-01-05T20:56:16.383Z,100175.91
2023-01-05T20:58:21.445Z,100185.66
2023-01-05T21:01:10.681Z,100188.38
2023-01-05T21:03:20.477Z,100199.84
2023-01-05T21:05:24.509Z,100206.25
2023-01-05T21:07:41.240Z,100213.28
2023-01-05T21:09:56.368Z,100221.34
2023-01-05T21:11:59.955Z,100229.84
2023-01-05T21:14:07.682Z,100234.34
2023-01-05T21:16:45.663Z,100237.28
2023-01-05T21:18:52.955Z,100234.50
2023-01-05T21:21:32.444Z,100244.34
2023-01-05T21:23:51.276Z,100240.50
2023-01-05T21:26:07.454Z,100252.19
2023-01-05T21:28:11.761Z,100265.97
2023-01-05T21:31:04.322Z,100264.63
2023-01-05T21:33:15.335Z,100269.38
2023-01-05T21:35:41.293Z,100287.91
2023-01-05T21:37:45.461Z,100291.72
2023-01-05T21:39:57.954Z,100296.44
2023-01-05T21:42:22.844Z,100291.28
2023-01-05T21:44:24.824Z,100296.13
2023-01-05T21:46:43.702Z,100316.22
2023-01-05T21:48:46.702Z,100340.47
2023-01-05T21:51:18.623Z,100337.69
2023-01-05T21:53:38.990Z,100333.63
2023-01-05T21:56:12.598Z,100341.63
2023-01-05T21:58:20.778Z,100361.78
2023-01-05T22:00:29.159Z,100370.84
2023-01-05T22:02:41.057Z,100355.53
2023-01-05T22:04:44.665Z,100370.53
2023-01-05T22:06:57.623Z,100371.47
2023-01-05T22:09:01.827Z,100389.88
2023-01-05T22:11:05.399Z,100381.25
2023-01-05T22:13:11.780Z,100394.19
2023-01-05T22:15:14.731Z,100398.88
2023-01-05T22:17:16.757Z,100407.75
2023-01-05T22:19:18.893Z,100416.06
2023-01-05T22:21:26.152Z,100421.16
2023-01-05T22:23:32.335Z,100434.47
2023-01-05T22:25:46.426Z,100434.31
2023-01-05T22:27:51.431Z,100437.66
2023-01-05T22:29:55.455Z,100425.59
2023-01-05T22:32:07.249Z,100441.53
2023-01-05T22:34:23.887Z,100448.19
2023-01-05T22:36:33.921Z,100446.16
2023-01-05T22:38:42.224Z,100452.84
2023-01-05T22:40:44.253Z,100458.69
2023-01-05T22:42:58.239Z,100463.59
2023-01-05T22:45:07.037Z,100470.41
2023-01-05T22:47:11.145Z,100475.44
2023-01-05T22:49:17.217Z,100492.38
2023-01-05T22:51:37.252Z,100492.13
2023-01-05T22:53:56.940Z,100493.53
2023-01-05T22:55:59.384Z,100517.34
2023-01-05T22:58:06.890Z,100504.72
2023-01-05T23:00:20.081Z,100523.81
2023-01-05T23:02:23.108Z,100524.69
2023-01-05T23:04:35.586Z,100532.22
2023-01-05T23:06:37.927Z,100539.13
2023-01-05T23:08:41.453Z,100544.78
2023-01-05T23:11:01.911Z,100554.00
2023-01-05T23:13:11.051Z,100549.59
2023-01-05T23:15:15.003Z,100560.72
2023-01-05T23:17:17.005Z,100561.41
2023-01-05T23:19:19.322Z,100569.50
2023-01-05T23:21:37.225Z,100552.84
2023-01-05T23:23:55.839Z,100569.03
2023-01-05T23:25:58.291Z,100571.31
2023-01-05T23:28:00.272Z,100586.72
2023-01-05T23:30:06.477Z,100587.31
2023-01-05T23:32:08.609Z,100589.94
2023-01-05T23:34:11.693Z,100588.19
2023-01-05T23:36:16.025Z,100598.66
2023-01-05T23:38:19.628Z,100611.28
2023-01-05T23:40:21.642Z,100613.13
2023-01-05T23:42:43.056Z,100628.13
2023-01-05T23:44:54.991Z,100621.31
2023-01-05T23:46:58.940Z,100624.81
2023-01-05T23:49:01.841Z,100631.28
2023-01-05T23:51:13.683Z,100632.44
2023-01-05T23:53:16.618Z,100636.63
2023-01-05T23:55:20.667Z,100636.28
2023-01-05T23:57:22.699Z,100632.16
2023-01-05T23:59:38.023Z,100640.31
